sensor_id;sensor_type;location;lat;lon;timestamp;temperature;humidity
41262;DHT22;29629;52.532;13.352;2023-04-19T00:00:10;7.20;99.90
41262;DHT22;29629;52.532;13.352;2023-04-19T00:02:40;7.20;99.90
41262;DHT22;29629;52.532;13.352;2023-04-19T00:05:08;7.20;99.90
41262;DHT22;29629;52.532;13.352;2023-04-19T00:07:36;7.20;99.90
41262;DHT22;29629;52.532;13.352;2023-04-19T00:10:03;7.20;99.90
41262;DHT22;29629;52.532;13.352;2023-04-19T00:12:31;7.30;99.90
41262;DHT22;29629;52.532;13.352;2023-04-19T00:14:58;7.30;99.90
41262;DHT22;29629;52.532;13.352;2023-04-19T00:17:25;7.40;99.90
41262;DHT22;29629;52.532;13.352;2023-04-19T00:19:54;7.40;99.90
41262;DHT22;29629;52.532;13.352;2023-04-19T00:22:22;7.50;99.90
41262;DHT22;29629;52.532;13.352;2023-04-19T00:24:49;7.50;99.90
41262;DHT22;29629;52.532;13.352;2023-04-19T00:27:16;7.50;99.90
41262;DHT22;29629;52.532;13.352;2023-04-19T00:29:43;7.40;99.90
41262;DHT22;29629;52.532;13.352;2023-04-19T00:32:10;7.40;99.90
41262;DHT22;29629;52.532;13.352;2023-04-19T00:34:37;7.40;99.90
41262;DHT22;29629;52.532;13.352;2023-04-19T00:37:05;7.40;99.90
41262;DHT22;29629;52.532;13.352;2023-04-19T00:39:32;7.30;99.90
41262;DHT22;29629;52.532;13.352;2023-04-19T00:41:59;7.30;99.90
41262;DHT22;29629;52.532;13.352;2023-04-19T00:44:26;7.20;99.90
41262;DHT22;29629;52.532;13.352;2023-04-19T00:46:54;7.20;99.90
41262;DHT22;29629;52.532;13.352;2023-04-19T00:49:22;7.10;99.90
41262;DHT22;29629;52.532;13.352;2023-04-19T00:51:50;7.10;99.90
41262;DHT22;29629;52.532;13.352;2023-04-19T00:54:18;7.20;99.90
41262;DHT22;29629;52.532;13.352;2023-04-19T00:56:45;7.20;99.90
41262;DHT22;29629;52.532;13.352;2023-04-19T00:59:13;7.10;99.90
41262;DHT22;29629;52.532;13.352;2023-04-19T01:01:41;7.20;99.90
41262;DHT22;29629;52.532;13.352;2023-04-19T01:04:08;7.10;99.90
41262;DHT22;29629;52.532;13.352;2023-04-19T01:06:35;7.10;99.90
41262;DHT22;29629;52.532;13.352;2023-04-19T01:09:03;7.10;99.90
41262;DHT22;29629;52.532;13.352;2023-04-19T01:11:32;7.00;99.90
41262;DHT22;29629;52.532;13.352;2023-04-19T01:13:59;7.00;99.90
41262;DHT22;29629;52.532;13.352;2023-04-19T01:16:27;6.90;99.90
41262;DHT22;29629;52.532;13.352;2023-04-19T01:18:54;6.90;99.90
41262;DHT22;29629;52.532;13.352;2023-04-19T01:21:21;6.90;99.90
41262;DHT22;29629;52.532;13.352;2023-04-19T01:23:49;6.90;99.90
41262;DHT22;29629;52.532;13.352;2023-04-19T01:26:17;6.80;99.90
41262;DHT22;29629;52.532;13.352;2023-04-19T01:28:44;6.80;99.90
41262;DHT22;29629;52.532;13.352;2023-04-19T01:31:11;6.70;99.90
41262;DHT22;29629;52.532;13.352;2023-04-19T01:33:38;6.70;99.90
41262;DHT22;29629;52.532;13.352;2023-04-19T01:36:06;6.70;99.90
41262;DHT22;29629;52.532;13.352;2023-04-19T01:38:33;6.60;99.90
41262;DHT22;29629;52.532;13.352;2023-04-19T01:41:02;6.60;99.90
41262;DHT22;29629;52.532;13.352;2023-04-19T01:43:28;6.60;99.90
41262;DHT22;29629;52.532;13.352;2023-04-19T01:45:55;6.50;99.90
41262;DHT22;29629;52.532;13.352;2023-04-19T01:48:22;6.50;99.90
41262;DHT22;29629;52.532;13.352;2023-04-19T01:50:49;6.50;99.90
41262;DHT22;29629;52.532;13.352;2023-04-19T01:53:16;6.50;99.90
41262;DHT22;29629;52.532;13.352;2023-04-19T01:55:43;6.50;99.90
41262;DHT22;29629;52.532;13.352;2023-04-19T01:58:11;6.40;99.90
41262;DHT22;29629;52.532;13.352;2023-04-19T02:00:38;6.40;99.90
41262;DHT22;29629;52.532;13.352;2023-04-19T02:03:05;6.40;99.90
41262;DHT22;29629;52.532;13.352;2023-04-19T02:05:32;6.40;99.90
41262;DHT22;29629;52.532;13.352;2023-04-19T02:08:00;6.40;99.90
41262;DHT22;29629;52.532;13.352;2023-04-19T02:10:27;6.20;99.90
41262;DHT22;29629;52.532;13.352;2023-04-19T02:12:54;6.30;99.90
41262;DHT22;29629;52.532;13.352;2023-04-19T02:15:22;6.20;99.90
41262;DHT22;29629;52.532;13.352;2023-04-19T02:17:49;6.20;99.90
41262;DHT22;29629;52.532;13.352;2023-04-19T02:20:16;6.20;99.90
41262;DHT22;29629;52.532;13.352;2023-04-19T02:22:43;6.30;99.90
41262;DHT22;29629;52.532;13.352;2023-04-19T02:25:10;6.20;99.90
41262;DHT22;29629;52.532;13.352;2023-04-19T02:27:37;6.20;99.90
41262;DHT22;29629;52.532;13.352;2023-04-19T02:30:05;6.20;99.90
41262;DHT22;29629;52.532;13.352;2023-04-19T02:32:34;6.10;99.90
41262;DHT22;29629;52.532;13.352;2023-04-19T02:35:01;6.10;99.90
41262;DHT22;29629;52.532;13.352;2023-04-19T02:37:28;6.10;99.90
41262;DHT22;29629;52.532;13.352;2023-04-19T02:39:55;6.10;99.90
41262;DHT22;29629;52.532;13.352;2023-04-19T02:42:22;6.10;99.90
41262;DHT22;29629;52.532;13.352;2023-04-19T02:44:49;6.10;99.90
41262;DHT22;29629;52.532;13.352;2023-04-19T02:47:15;6.00;99.90
41262;DHT22;29629;52.532;13.352;2023-04-19T02:49:44;6.00;99.90
41262;DHT22;29629;52.532;13.352;2023-04-19T02:52:11;6.00;99.90
41262;DHT22;29629;52.532;13.352;2023-04-19T02:54:38;5.90;99.90
41262;DHT22;29629;52.532;13.352;2023-04-19T02:57:05;5.90;99.90
41262;DHT22;29629;52.532;13.352;2023-04-19T02:59:31;5.90;99.90
41262;DHT22;29629;52.532;13.352;2023-04-19T03:01:58;5.90;99.90
41262;DHT22;29629;52.532;13.352;2023-04-19T03:04:25;5.90;99.90
41262;DHT22;29629;52.532;13.352;2023-04-19T03:06:54;5.80;99.90
41262;DHT22;29629;52.532;13.352;2023-04-19T03:09:21;5.80;99.90
41262;DHT22;29629;52.532;13.352;2023-04-19T03:11:48;5.70;99.90
41262;DHT22;29629;52.532;13.352;2023-04-19T03:14:15;5.80;99.90
41262;DHT22;29629;52.532;13.352;2023-04-19T03:16:42;5.80;99.90
41262;DHT22;29629;52.532;13.352;2023-04-19T03:19:09;5.70;99.90
41262;DHT22;29629;52.532;13.352;2023-04-19T03:21:36;5.70;99.90
41262;DHT22;29629;52.532;13.352;2023-04-19T03:24:05;5.70;99.90
41262;DHT22;29629;52.532;13.352;2023-04-19T03:26:32;5.60;99.90
41262;DHT22;29629;52.532;13.352;2023-04-19T03:28:59;5.60;99.90
41262;DHT22;29629;52.532;13.352;2023-04-19T03:31:26;5.60;99.90
41262;DHT22;29629;52.532;13.352;2023-04-19T03:33:53;5.60;99.90
41262;DHT22;29629;52.532;13.352;2023-04-19T03:36:20;5.60;99.90
41262;DHT22;29629;52.532;13.352;2023-04-19T03:38:47;5.50;99.90
41262;DHT22;29629;52.532;13.352;2023-04-19T03:41:19;5.50;99.90
41262;DHT22;29629;52.532;13.352;2023-04-19T03:43:46;5.50;99.90
41262;DHT22;29629;52.532;13.352;2023-04-19T03:46:13;5.50;99.90
41262;DHT22;29629;52.532;13.352;2023-04-19T03:48:40;5.50;99.90
41262;DHT22;29629;52.532;13.352;2023-04-19T03:51:07;5.50;99.90
41262;DHT22;29629;52.532;13.352;2023-04-19T03:53:35;5.50;99.90
41262;DHT22;29629;52.532;13.352;2023-04-19T03:56:01;5.40;99.90
41262;DHT22;29629;52.532;13.352;2023-04-19T03:58:30;5.40;99.90
41262;DHT22;29629;52.532;13.352;2023-04-19T04:00:57;5.40;99.90
41262;DHT22;29629;52.532;13.352;2023-04-19T04:03:24;5.40;99.90
41262;DHT22;29629;52.532;13.352;2023-04-19T04:05:51;5.30;99.90
41262;DHT22;29629;52.532;13.352;2023-04-19T04:08:18;5.40;99.90
41262;DHT22;29629;52.532;13.352;2023-04-19T04:10:45;5.30;99.90
41262;DHT22;29629;52.532;13.352;2023-04-19T04:13:12;5.30;99.90
41262;DHT22;29629;52.532;13.352;2023-04-19T04:15:40;5.30;99.90
41262;DHT22;29629;52.532;13.352;2023-04-19T04:18:07;5.30;99.90
41262;DHT22;29629;52.532;13.352;2023-04-19T04:20:34;5.30;99.90
41262;DHT22;29629;52.532;13.352;2023-04-19T04:23:01;5.30;99.90
41262;DHT22;29629;52.532;13.352;2023-04-19T04:25:28;5.20;99.90
41262;DHT22;29629;52.532;13.352;2023-04-19T04:27:57;5.30;99.90
41262;DHT22;29629;52.532;13.352;2023-04-19T04:30:24;5.30;99.90
41262;DHT22;29629;52.532;13.352;2023-04-19T04:32:54;5.30;99.90
41262;DHT22;29629;52.532;13.352;2023-04-19T04:35:23;5.30;99.90
41262;DHT22;29629;52.532;13.352;2023-04-19T04:37:56;5.30;99.90
41262;DHT22;29629;52.532;13.352;2023-04-19T04:40:24;5.30;99.90
41262;DHT22;29629;52.532;13.352;2023-04-19T04:42:51;5.40;99.90
41262;DHT22;29629;52.532;13.352;2023-04-19T04:45:18;5.40;99.90
41262;DHT22;29629;52.532;13.352;2023-04-19T04:47:45;5.40;99.90
41262;DHT22;29629;52.532;13.352;2023-04-19T04:50:14;5.40;99.90
41262;DHT22;29629;52.532;13.352;2023-04-19T04:52:40;5.50;99.90
41262;DHT22;29629;52.532;13.352;2023-04-19T04:55:08;5.50;99.90
41262;DHT22;29629;52.532;13.352;2023-04-19T04:57:35;5.60;99.90
41262;DHT22;29629;52.532;13.352;2023-04-19T05:00:03;5.60;99.90
41262;DHT22;29629;52.532;13.352;2023-04-19T05:02:31;5.70;99.90
41262;DHT22;29629;52.532;13.352;2023-04-19T05:04:58;5.70;99.90
41262;DHT22;29629;52.532;13.352;2023-04-19T05:07:26;5.80;99.90
41262;DHT22;29629;52.532;13.352;2023-04-19T05:09:53;5.80;99.90
41262;DHT22;29629;52.532;13.352;2023-04-19T05:12:20;5.90;99.90
41262;DHT22;29629;52.532;13.352;2023-04-19T05:14:47;6.00;99.90
41262;DHT22;29629;52.532;13.352;2023-04-19T05:17:14;6.10;99.90
41262;DHT22;29629;52.532;13.352;2023-04-19T05:19:41;6.20;99.90
41262;DHT22;29629;52.532;13.352;2023-04-19T05:22:08;6.20;99.90
41262;DHT22;29629;52.532;13.352;2023-04-19T05:24:36;6.30;99.90
41262;DHT22;29629;52.532;13.352;2023-04-19T05:27:03;6.40;99.90
41262;DHT22;29629;52.532;13.352;2023-04-19T05:29:30;6.50;99.90
41262;DHT22;29629;52.532;13.352;2023-04-19T05:31:57;6.60;99.90
41262;DHT22;29629;52.532;13.352;2023-04-19T05:34:24;6.60;99.90
41262;DHT22;29629;52.532;13.352;2023-04-19T05:36:51;6.70;99.90
41262;DHT22;29629;52.532;13.352;2023-04-19T05:39:18;6.80;99.90
41262;DHT22;29629;52.532;13.352;2023-04-19T05:41:46;6.90;99.90
41262;DHT22;29629;52.532;13.352;2023-04-19T05:44:13;6.90;99.90
41262;DHT22;29629;52.532;13.352;2023-04-19T05:46:40;6.90;99.90
41262;DHT22;29629;52.532;13.352;2023-04-19T05:49:07;6.90;99.90
41262;DHT22;29629;52.532;13.352;2023-04-19T05:51:34;6.90;99.90
41262;DHT22;29629;52.532;13.352;2023-04-19T05:54:01;7.00;99.90
41262;DHT22;29629;52.532;13.352;2023-04-19T05:56:28;7.10;99.90
41262;DHT22;29629;52.532;13.352;2023-04-19T05:58:57;7.10;99.90
41262;DHT22;29629;52.532;13.352;2023-04-19T06:01:25;7.20;99.90
41262;DHT22;29629;52.532;13.352;2023-04-19T06:03:52;7.10;99.90
41262;DHT22;29629;52.532;13.352;2023-04-19T06:06:21;7.20;99.90
41262;DHT22;29629;52.532;13.352;2023-04-19T06:08:48;7.30;99.90
41262;DHT22;29629;52.532;13.352;2023-04-19T06:11:15;7.50;99.90
41262;DHT22;29629;52.532;13.352;2023-04-19T06:13:42;7.50;99.90
41262;DHT22;29629;52.532;13.352;2023-04-19T06:16:11;7.60;99.90
41262;DHT22;29629;52.532;13.352;2023-04-19T06:18:37;7.80;99.90
41262;DHT22;29629;52.532;13.352;2023-04-19T06:21:05;7.90;99.90
41262;DHT22;29629;52.532;13.352;2023-04-19T06:23:32;7.80;99.90
41262;DHT22;29629;52.532;13.352;2023-04-19T06:25:59;7.80;99.90
41262;DHT22;29629;52.532;13.352;2023-04-19T06:28:26;7.80;99.90
41262;DHT22;29629;52.532;13.352;2023-04-19T06:30:53;8.10;99.90
41262;DHT22;29629;52.532;13.352;2023-04-19T06:33:21;8.10;99.90
41262;DHT22;29629;52.532;13.352;2023-04-19T06:35:48;8.30;99.90
41262;DHT22;29629;52.532;13.352;2023-04-19T06:38:15;8.30;99.90
41262;DHT22;29629;52.532;13.352;2023-04-19T06:40:42;8.40;99.90
41262;DHT22;29629;52.532;13.352;2023-04-19T06:43:09;8.60;99.90
41262;DHT22;29629;52.532;13.352;2023-04-19T06:45:36;8.70;99.90
41262;DHT22;29629;52.532;13.352;2023-04-19T06:48:03;8.70;99.90
41262;DHT22;29629;52.532;13.352;2023-04-19T06:50:31;8.80;99.90
41262;DHT22;29629;52.532;13.352;2023-04-19T06:52:58;9.00;99.90
41262;DHT22;29629;52.532;13.352;2023-04-19T06:55:25;8.90;99.90
41262;DHT22;29629;52.532;13.352;2023-04-19T06:57:52;9.10;99.90
41262;DHT22;29629;52.532;13.352;2023-04-19T07:00:19;9.20;99.90
41262;DHT22;29629;52.532;13.352;2023-04-19T07:02:48;9.40;99.90
41262;DHT22;29629;52.532;13.352;2023-04-19T07:05:15;9.50;99.90
41262;DHT22;29629;52.532;13.352;2023-04-19T07:07:43;9.70;99.90
41262;DHT22;29629;52.532;13.352;2023-04-19T07:10:10;9.80;99.90
41262;DHT22;29629;52.532;13.352;2023-04-19T07:12:37;10.00;99.90
41262;DHT22;29629;52.532;13.352;2023-04-19T07:15:05;10.00;99.90
41262;DHT22;29629;52.532;13.352;2023-04-19T07:17:33;10.00;99.90
41262;DHT22;29629;52.532;13.352;2023-04-19T07:20:01;10.20;99.90
41262;DHT22;29629;52.532;13.352;2023-04-19T07:22:28;10.30;99.90
41262;DHT22;29629;52.532;13.352;2023-04-19T07:24:56;10.50;99.90
41262;DHT22;29629;52.532;13.352;2023-04-19T07:27:24;10.50;99.90
41262;DHT22;29629;52.532;13.352;2023-04-19T07:29:51;10.70;99.90
41262;DHT22;29629;52.532;13.352;2023-04-19T07:32:18;10.60;99.90
41262;DHT22;29629;52.532;13.352;2023-04-19T07:34:45;10.80;99.90
41262;DHT22;29629;52.532;13.352;2023-04-19T07:37:13;11.00;99.90
41262;DHT22;29629;52.532;13.352;2023-04-19T07:39:40;11.10;99.90
41262;DHT22;29629;52.532;13.352;2023-04-19T07:42:08;11.40;99.90
41262;DHT22;29629;52.532;13.352;2023-04-19T07:44:35;11.50;99.90
41262;DHT22;29629;52.532;13.352;2023-04-19T07:47:03;11.60;99.90
41262;DHT22;29629;52.532;13.352;2023-04-19T07:49:30;11.50;99.90
41262;DHT22;29629;52.532;13.352;2023-04-19T07:51:58;11.60;99.90
41262;DHT22;29629;52.532;13.352;2023-04-19T07:54:26;11.60;99.90
41262;DHT22;29629;52.532;13.352;2023-04-19T07:56:53;11.80;99.90
41262;DHT22;29629;52.532;13.352;2023-04-19T07:59:22;12.00;99.90
41262;DHT22;29629;52.532;13.352;2023-04-19T08:01:49;12.10;99.90
41262;DHT22;29629;52.532;13.352;2023-04-19T08:04:16;12.30;99.90
41262;DHT22;29629;52.532;13.352;2023-04-19T08:06:44;12.40;99.90
41262;DHT22;29629;52.532;13.352;2023-04-19T08:09:11;12.40;99.90
41262;DHT22;29629;52.532;13.352;2023-04-19T08:11:39;12.70;99.90
41262;DHT22;29629;52.532;13.352;2023-04-19T08:14:06;12.80;99.90
41262;DHT22;29629;52.532;13.352;2023-04-19T08:16:35;12.90;99.90
41262;DHT22;29629;52.532;13.352;2023-04-19T08:19:01;13.10;99.90
41262;DHT22;29629;52.532;13.352;2023-04-19T08:21:28;13.40;99.90
41262;DHT22;29629;52.532;13.352;2023-04-19T08:23:56;13.30;99.90
41262;DHT22;29629;52.532;13.352;2023-04-19T08:26:22;13.40;99.90
41262;DHT22;29629;52.532;13.352;2023-04-19T08:28:49;13.40;99.90
41262;DHT22;29629;52.532;13.352;2023-04-19T08:31:16;13.60;99.90
41262;DHT22;29629;52.532;13.352;2023-04-19T08:33:46;13.70;99.90
41262;DHT22;29629;52.532;13.352;2023-04-19T08:36:13;13.80;99.90
41262;DHT22;29629;52.532;13.352;2023-04-19T08:38:41;13.80;99.90
41262;DHT22;29629;52.532;13.352;2023-04-19T08:41:10;14.20;99.90
41262;DHT22;29629;52.532;13.352;2023-04-19T08:43:38;14.00;99.90
41262;DHT22;29629;52.532;13.352;2023-04-19T08:46:07;14.50;99.90
41262;DHT22;29629;52.532;13.352;2023-04-19T08:48:34;14.90;99.90
41262;DHT22;29629;52.532;13.352;2023-04-19T08:51:03;15.30;99.90
41262;DHT22;29629;52.532;13.352;2023-04-19T08:53:32;15.60;99.90
41262;DHT22;29629;52.532;13.352;2023-04-19T08:56:00;15.50;99.90
41262;DHT22;29629;52.532;13.352;2023-04-19T08:58:27;15.20;99.90
41262;DHT22;29629;52.532;13.352;2023-04-19T09:00:57;15.50;99.90
41262;DHT22;29629;52.532;13.352;2023-04-19T09:03:25;15.70;99.90
41262;DHT22;29629;52.532;13.352;2023-04-19T09:05:51;15.20;99.90
41262;DHT22;29629;52.532;13.352;2023-04-19T09:08:25;14.80;99.90
41262;DHT22;29629;52.532;13.352;2023-04-19T09:10:54;14.60;99.90
41262;DHT22;29629;52.532;13.352;2023-04-19T09:13:21;14.50;99.90
41262;DHT22;29629;52.532;13.352;2023-04-19T09:15:48;14.40;99.90
41262;DHT22;29629;52.532;13.352;2023-04-19T09:18:16;15.60;99.90
41262;DHT22;29629;52.532;13.352;2023-04-19T09:20:44;18.60;99.90
41262;DHT22;29629;52.532;13.352;2023-04-19T09:23:13;18.50;99.90
41262;DHT22;29629;52.532;13.352;2023-04-19T09:25:50;20.10;99.90
41262;DHT22;29629;52.532;13.352;2023-04-19T09:28:17;20.10;96.60
41262;DHT22;29629;52.532;13.352;2023-04-19T09:30:44;17.90;98.50
41262;DHT22;29629;52.532;13.352;2023-04-19T09:33:12;17.50;99.50
41262;DHT22;29629;52.532;13.352;2023-04-19T09:35:39;16.80;99.90
41262;DHT22;29629;52.532;13.352;2023-04-19T09:38:06;17.10;99.90
41262;DHT22;29629;52.532;13.352;2023-04-19T09:40:33;19.30;99.00
41262;DHT22;29629;52.532;13.352;2023-04-19T09:43:02;21.20;96.00
41262;DHT22;29629;52.532;13.352;2023-04-19T09:45:38;22.70;92.80
41262;DHT22;29629;52.532;13.352;2023-04-19T09:48:07;22.90;91.50
41262;DHT22;29629;52.532;13.352;2023-04-19T09:50:34;22.50;90.10
41262;DHT22;29629;52.532;13.352;2023-04-19T09:53:02;22.70;89.90
41262;DHT22;29629;52.532;13.352;2023-04-19T09:55:29;21.40;89.40
41262;DHT22;29629;52.532;13.352;2023-04-19T09:57:57;19.40;91.30
41262;DHT22;29629;52.532;13.352;2023-04-19T10:00:25;21.10;93.00
41262;DHT22;29629;52.532;13.352;2023-04-19T10:02:53;22.80;90.00
41262;DHT22;29629;52.532;13.352;2023-04-19T10:05:23;23.80;88.80
41262;DHT22;29629;52.532;13.352;2023-04-19T10:07:51;24.60;87.10
41262;DHT22;29629;52.532;13.352;2023-04-19T10:10:20;25.00;86.10
41262;DHT22;29629;52.532;13.352;2023-04-19T10:12:50;25.30;83.50
41262;DHT22;29629;52.532;13.352;2023-04-19T10:15:19;25.40;83.10
41262;DHT22;29629;52.532;13.352;2023-04-19T10:17:47;23.50;81.50
41262;DHT22;29629;52.532;13.352;2023-04-19T10:20:19;25.10;82.00
41262;DHT22;29629;52.532;13.352;2023-04-19T10:22:47;25.30;79.50
41262;DHT22;29629;52.532;13.352;2023-04-19T10:25:15;24.40;78.40
41262;DHT22;29629;52.532;13.352;2023-04-19T10:27:43;24.40;78.60
41262;DHT22;29629;52.532;13.352;2023-04-19T10:30:17;24.80;81.00
41262;DHT22;29629;52.532;13.352;2023-04-19T10:32:50;24.80;77.90
41262;DHT22;29629;52.532;13.352;2023-04-19T10:35:19;24.70;77.80
41262;DHT22;29629;52.532;13.352;2023-04-19T10:38:03;24.90;75.30
41262;DHT22;29629;52.532;13.352;2023-04-19T10:43:37;23.70;77.70
41262;DHT22;29629;52.532;13.352;2023-04-19T10:46:07;23.80;80.10
41262;DHT22;29629;52.532;13.352;2023-04-19T10:48:37;24.10;76.50
41262;DHT22;29629;52.532;13.352;2023-04-19T10:51:11;23.00;78.80
41262;DHT22;29629;52.532;13.352;2023-04-19T10:53:46;23.80;79.10
41262;DHT22;29629;52.532;13.352;2023-04-19T10:56:14;22.80;78.10
41262;DHT22;29629;52.532;13.352;2023-04-19T10:59:12;22.10;78.80
41262;DHT22;29629;52.532;13.352;2023-04-19T11:01:51;22.10;78.40
41262;DHT22;29629;52.532;13.352;2023-04-19T11:04:21;20.90;80.80
41262;DHT22;29629;52.532;13.352;2023-04-19T11:06:59;21.30;82.10
41262;DHT22;29629;52.532;13.352;2023-04-19T11:09:28;21.00;82.10
41262;DHT22;29629;52.532;13.352;2023-04-19T11:12:00;21.00;85.00
41262;DHT22;29629;52.532;13.352;2023-04-19T11:14:30;21.10;81.80
41262;DHT22;29629;52.532;13.352;2023-04-19T11:16:58;20.80;82.00
41262;DHT22;29629;52.532;13.352;2023-04-19T11:19:27;20.60;81.80
41262;DHT22;29629;52.532;13.352;2023-04-19T11:21:58;21.50;81.50
41262;DHT22;29629;52.532;13.352;2023-04-19T11:24:25;21.80;79.40
41262;DHT22;29629;52.532;13.352;2023-04-19T11:26:54;22.10;80.90
41262;DHT22;29629;52.532;13.352;2023-04-19T11:29:22;21.10;81.90
41262;DHT22;29629;52.532;13.352;2023-04-19T11:31:49;20.00;81.60
41262;DHT22;29629;52.532;13.352;2023-04-19T11:34:16;19.00;84.90
41262;DHT22;29629;52.532;13.352;2023-04-19T11:36:49;18.20;87.10
41262;DHT22;29629;52.532;13.352;2023-04-19T11:39:16;17.90;87.50
41262;DHT22;29629;52.532;13.352;2023-04-19T11:41:43;17.40;88.70
41262;DHT22;29629;52.532;13.352;2023-04-19T11:44:15;17.80;89.80
41262;DHT22;29629;52.532;13.352;2023-04-19T11:46:57;18.40;90.10
41262;DHT22;29629;52.532;13.352;2023-04-19T11:49:25;18.20;88.50
41262;DHT22;29629;52.532;13.352;2023-04-19T11:51:56;17.90;89.10
41262;DHT22;29629;52.532;13.352;2023-04-19T11:54:24;17.40;90.20
41262;DHT22;29629;52.532;13.352;2023-04-19T11:57:01;16.80;91.00
41262;DHT22;29629;52.532;13.352;2023-04-19T11:59:33;16.40;91.00
41262;DHT22;29629;52.532;13.352;2023-04-19T12:02:07;16.30;91.30
41262;DHT22;29629;52.532;13.352;2023-04-19T12:04:35;16.20;91.70
41262;DHT22;29629;52.532;13.352;2023-04-19T12:07:04;16.20;92.20
41262;DHT22;29629;52.532;13.352;2023-04-19T12:09:33;16.20;92.60
41262;DHT22;29629;52.532;13.352;2023-04-19T12:12:01;16.20;92.10
41262;DHT22;29629;52.532;13.352;2023-04-19T12:14:29;16.40;91.90
41262;DHT22;29629;52.532;13.352;2023-04-19T12:17:07;16.20;91.40
41262;DHT22;29629;52.532;13.352;2023-04-19T12:19:35;16.10;91.80
41262;DHT22;29629;52.532;13.352;2023-04-19T12:22:11;15.90;91.80
41262;DHT22;29629;52.532;13.352;2023-04-19T12:24:38;15.60;91.90
41262;DHT22;29629;52.532;13.352;2023-04-19T12:27:06;15.60;93.00
41262;DHT22;29629;52.532;13.352;2023-04-19T12:29:33;15.60;93.50
41262;DHT22;29629;52.532;13.352;2023-04-19T12:32:00;15.50;93.30
41262;DHT22;29629;52.532;13.352;2023-04-19T12:34:27;15.50;94.20
41262;DHT22;29629;52.532;13.352;2023-04-19T12:36:55;15.40;93.80
41262;DHT22;29629;52.532;13.352;2023-04-19T12:39:23;15.40;93.70
41262;DHT22;29629;52.532;13.352;2023-04-19T12:41:50;15.40;93.90
41262;DHT22;29629;52.532;13.352;2023-04-19T12:44:18;15.30;93.90
41262;DHT22;29629;52.532;13.352;2023-04-19T12:46:44;15.30;94.40
41262;DHT22;29629;52.532;13.352;2023-04-19T12:49:11;15.20;95.20
41262;DHT22;29629;52.532;13.352;2023-04-19T12:51:40;15.20;95.10
41262;DHT22;29629;52.532;13.352;2023-04-19T12:54:07;15.60;95.20
41262;DHT22;29629;52.532;13.352;2023-04-19T12:56:35;16.10;94.00
41262;DHT22;29629;52.532;13.352;2023-04-19T12:59:02;16.40;94.00
41262;DHT22;29629;52.532;13.352;2023-04-19T13:01:31;17.80;92.70
41262;DHT22;29629;52.532;13.352;2023-04-19T13:03:58;18.40;91.40
41262;DHT22;29629;52.532;13.352;2023-04-19T13:06:25;19.40;90.30
41262;DHT22;29629;52.532;13.352;2023-04-19T13:08:52;20.00;89.20
41262;DHT22;29629;52.532;13.352;2023-04-19T13:11:19;20.40;87.90
41262;DHT22;29629;52.532;13.352;2023-04-19T13:13:49;20.50;85.30
41262;DHT22;29629;52.532;13.352;2023-04-19T13:16:17;19.70;87.30
41262;DHT22;29629;52.532;13.352;2023-04-19T13:18:44;19.70;87.90
41262;DHT22;29629;52.532;13.352;2023-04-19T13:21:11;18.90;87.80
41262;DHT22;29629;52.532;13.352;2023-04-19T13:23:38;18.80;87.00
41262;DHT22;29629;52.532;13.352;2023-04-19T13:26:05;19.10;85.70
41262;DHT22;29629;52.532;13.352;2023-04-19T13:28:32;18.80;84.40
41262;DHT22;29629;52.532;13.352;2023-04-19T13:31:03;18.60;84.50
41262;DHT22;29629;52.532;13.352;2023-04-19T13:33:30;18.60;85.40
41262;DHT22;29629;52.532;13.352;2023-04-19T13:35:57;17.50;86.00
41262;DHT22;29629;52.532;13.352;2023-04-19T13:38:24;17.50;87.70
41262;DHT22;29629;52.532;13.352;2023-04-19T13:40:51;17.10;87.00
41262;DHT22;29629;52.532;13.352;2023-04-19T13:43:18;16.70;88.10
41262;DHT22;29629;52.532;13.352;2023-04-19T13:45:45;16.60;89.40
41262;DHT22;29629;52.532;13.352;2023-04-19T13:48:13;16.30;90.10
41262;DHT22;29629;52.532;13.352;2023-04-19T13:50:40;15.80;90.30
41262;DHT22;29629;52.532;13.352;2023-04-19T13:53:07;15.60;90.60
41262;DHT22;29629;52.532;13.352;2023-04-19T13:55:34;15.20;91.00
41262;DHT22;29629;52.532;13.352;2023-04-19T13:58:01;14.80;91.40
41262;DHT22;29629;52.532;13.352;2023-04-19T14:00:28;14.80;92.40
41262;DHT22;29629;52.532;13.352;2023-04-19T14:02:55;14.60;93.00
41262;DHT22;29629;52.532;13.352;2023-04-19T14:05:23;14.40;93.40
41262;DHT22;29629;52.532;13.352;2023-04-19T14:07:50;14.40;94.20
41262;DHT22;29629;52.532;13.352;2023-04-19T14:10:18;14.40;95.00
41262;DHT22;29629;52.532;13.352;2023-04-19T14:12:45;14.30;94.90
41262;DHT22;29629;52.532;13.352;2023-04-19T14:15:13;13.90;94.50
41262;DHT22;29629;52.532;13.352;2023-04-19T14:17:40;13.80;96.10
41262;DHT22;29629;52.532;13.352;2023-04-19T14:20:08;14.10;96.00
41262;DHT22;29629;52.532;13.352;2023-04-19T14:22:37;14.20;96.20
41262;DHT22;29629;52.532;13.352;2023-04-19T14:25:04;14.40;95.70
41262;DHT22;29629;52.532;13.352;2023-04-19T14:27:31;14.50;95.50
41262;DHT22;29629;52.532;13.352;2023-04-19T14:29:58;14.70;95.40
41262;DHT22;29629;52.532;13.352;2023-04-19T14:32:26;14.60;95.30
41262;DHT22;29629;52.532;13.352;2023-04-19T14:34:53;14.50;95.70
41262;DHT22;29629;52.532;13.352;2023-04-19T14:37:21;14.20;97.10
41262;DHT22;29629;52.532;13.352;2023-04-19T14:39:50;14.00;96.50
41262;DHT22;29629;52.532;13.352;2023-04-19T14:42:17;14.00;97.40
41262;DHT22;29629;52.532;13.352;2023-04-19T14:44:44;13.90;98.30
41262;DHT22;29629;52.532;13.352;2023-04-19T14:47:12;13.80;98.60
41262;DHT22;29629;52.532;13.352;2023-04-19T14:49:39;13.60;99.00
41262;DHT22;29629;52.532;13.352;2023-04-19T14:52:06;13.50;98.50
41262;DHT22;29629;52.532;13.352;2023-04-19T14:54:33;13.50;99.50
41262;DHT22;29629;52.532;13.352;2023-04-19T14:57:01;13.40;99.90
41262;DHT22;29629;52.532;13.352;2023-04-19T14:59:28;13.20;99.90
41262;DHT22;29629;52.532;13.352;2023-04-19T15:01:55;13.10;99.90
41262;DHT22;29629;52.532;13.352;2023-04-19T15:04:22;12.70;99.90
41262;DHT22;29629;52.532;13.352;2023-04-19T15:06:49;12.50;99.90
41262;DHT22;29629;52.532;13.352;2023-04-19T15:09:16;12.30;99.90
41262;DHT22;29629;52.532;13.352;2023-04-19T15:11:43;12.40;99.90
41262;DHT22;29629;52.532;13.352;2023-04-19T15:14:11;11.80;99.90
41262;DHT22;29629;52.532;13.352;2023-04-19T15:16:38;11.60;99.90
41262;DHT22;29629;52.532;13.352;2023-04-19T15:19:05;11.20;99.90
41262;DHT22;29629;52.532;13.352;2023-04-19T15:21:32;10.70;99.90
41262;DHT22;29629;52.532;13.352;2023-04-19T15:23:59;10.40;99.90
41262;DHT22;29629;52.532;13.352;2023-04-19T15:26:26;10.40;99.90
41262;DHT22;29629;52.532;13.352;2023-04-19T15:28:53;10.30;99.90